createdAt,value
2017-10-08T00:01:44.138Z,30.80
2017-10-08T00:04:15.455Z,34.38
2017-10-08T00:06:46.100Z,29.48
2017-10-08T00:09:17.668Z,31.17
2017-10-08T00:11:49.410Z,34.38
2017-10-08T00:14:20.704Z,34.50
2017-10-08T00:16:51.386Z,31.20
2017-10-08T00:19:22.772Z,29.58
2017-10-08T00:21:53.253Z,34.25
2017-10-08T00:24:23.799Z,35.63
2017-10-08T00:26:54.410Z,35.10
2017-10-08T00:29:25.240Z,39.88
2017-10-08T00:31:56.594Z,40.30
2017-10-08T00:34:27.488Z,41.40
2017-10-08T00:36:58.253Z,39.53
2017-10-08T00:39:28.666Z,33.90
2017-10-08T00:42:00.193Z,33.78
2017-10-08T00:44:31.739Z,42.35
2017-10-08T00:47:02.720Z,36.97
2017-10-08T00:49:33.531Z,39.80
2017-10-08T00:52:03.998Z,42.97
2017-10-08T00:54:35.025Z,36.85
2017-10-08T00:57:05.635Z,36.40
2017-10-08T00:59:35.970Z,39.63
2017-10-08T01:02:06.838Z,38.50
2017-10-08T01:04:37.743Z,38.95
2017-10-08T01:07:08.550Z,38.72
2017-10-08T01:09:39.162Z,47.03
2017-10-08T01:12:09.777Z,44.35
2017-10-08T01:14:41.273Z,42.97
2017-10-08T01:17:11.861Z,36.20
2017-10-08T01:19:43.488Z,45.00
2017-10-08T01:22:14.161Z,45.50
2017-10-08T01:24:45.108Z,38.35
2017-10-08T01:27:16.308Z,35.45
2017-10-08T01:29:46.838Z,36.63
2017-10-08T01:32:18.667Z,35.83
2017-10-08T01:34:49.414Z,33.67
2017-10-08T01:37:20.123Z,35.75
2017-10-08T01:39:50.661Z,32.90
2017-10-08T01:42:21.154Z,38.35
2017-10-08T01:44:51.968Z,53.50
2017-10-08T01:47:22.768Z,35.40
2017-10-08T01:49:53.032Z,40.28
2017-10-08T01:52:23.656Z,46.67
2017-10-08T01:54:54.307Z,39.65
2017-10-08T01:57:25.200Z,40.22
2017-10-08T01:59:58.213Z,30.20
2017-10-08T02:02:29.036Z,39.47
2017-10-08T02:04:59.862Z,39.70
2017-10-08T02:07:30.049Z,42.15
2017-10-08T02:10:01.257Z,34.50
2017-10-08T02:12:31.933Z,43.08
2017-10-08T02:15:02.457Z,34.17
2017-10-08T02:17:33.168Z,37.22
2017-10-08T02:20:04.627Z,41.10
2017-10-08T02:22:36.052Z,37.75
2017-10-08T02:25:06.905Z,39.40
2017-10-08T02:27:38.065Z,41.08
2017-10-08T02:30:08.979Z,29.98
2017-10-08T02:32:39.525Z,36.92
2017-10-08T02:35:11.372Z,32.78
2017-10-08T02:37:42.064Z,35.47
2017-10-08T02:40:12.358Z,33.28
2017-10-08T02:42:42.459Z,37.63
2017-10-08T02:45:13.859Z,42.55
2017-10-08T02:47:44.358Z,37.75
2017-10-08T02:50:15.046Z,43.85
2017-10-08T02:52:45.488Z,36.50
2017-10-08T02:55:16.165Z,44.45
2017-10-08T02:57:46.835Z,39.90
2017-10-08T03:00:17.453Z,44.83
2017-10-08T03:02:48.630Z,43.33
2017-10-08T03:05:20.283Z,46.00
2017-10-08T03:07:50.723Z,49.45
2017-10-08T03:10:22.208Z,33.80
2017-10-08T03:12:52.729Z,40.88
2017-10-08T03:15:23.489Z,43.03
2017-10-08T03:17:53.755Z,60.75
2017-10-08T03:20:25.245Z,35.63
2017-10-08T03:22:55.965Z,33.47
2017-10-08T03:25:26.353Z,49.92
2017-10-08T03:27:57.719Z,41.10
2017-10-08T03:30:28.312Z,44.10
2017-10-08T03:32:58.967Z,35.45
2017-10-08T03:35:30.403Z,42.40
2017-10-08T03:38:02.778Z,34.00
2017-10-08T03:40:33.754Z,44.10
2017-10-08T03:43:04.271Z,43.38
2017-10-08T03:45:35.754Z,34.28
2017-10-08T03:48:05.928Z,48.55
2017-10-08T03:50:37.522Z,45.72
2017-10-08T03:53:07.925Z,39.58
2017-10-08T03:55:38.176Z,34.53
2017-10-08T03:58:08.587Z,47.03
2017-10-08T04:00:39.204Z,37.38
2017-10-08T04:03:09.525Z,44.78
2017-10-08T04:05:40.899Z,46.50
2017-10-08T04:08:11.306Z,38.28
2017-10-08T04:10:42.647Z,41.13
2017-10-08T04:13:13.805Z,39.15
2017-10-08T04:15:44.862Z,34.92
2017-10-08T04:18:15.099Z,43.28
2017-10-08T04:20:45.477Z,40.20
2017-10-08T04:23:16.274Z,42.40
2017-10-08T04:25:46.892Z,32.60
2017-10-08T04:28:17.143Z,39.45
2017-10-08T04:30:47.795Z,34.08
2017-10-08T04:33:19.125Z,56.72
2017-10-08T04:35:49.814Z,36.72
2017-10-08T04:38:20.623Z,37.17
2017-10-08T04:40:51.637Z,40.58
2017-10-08T04:43:23.285Z,46.92
2017-10-08T04:45:53.984Z,37.75
2017-10-08T04:48:24.547Z,35.90
2017-10-08T04:50:55.332Z,34.92
2017-10-08T04:53:26.014Z,37.97
2017-10-08T04:55:56.750Z,44.67
2017-10-08T04:58:27.210Z,45.60
2017-10-08T05:00:57.769Z,44.40
2017-10-08T05:03:28.392Z,39.85
2017-10-08T05:05:59.008Z,41.42
2017-10-08T05:08:29.951Z,36.88
2017-10-08T05:11:00.331Z,44.20
2017-10-08T05:13:30.815Z,43.00
2017-10-08T05:16:00.981Z,43.35
2017-10-08T05:18:32.624Z,34.97
2017-10-08T05:21:03.047Z,33.63
2017-10-08T05:23:33.740Z,58.47
2017-10-08T05:26:04.424Z,41.05
2017-10-08T05:28:35.881Z,41.35
2017-10-08T05:31:07.458Z,34.35
2017-10-08T05:33:38.543Z,37.40
2017-10-08T05:36:09.181Z,31.62
2017-10-08T05:38:40.215Z,38.47
2017-10-08T05:41:11.044Z,41.22
2017-10-08T05:43:41.696Z,43.87
2017-10-08T05:46:12.769Z,35.88
2017-10-08T05:48:44.172Z,42.72
2017-10-08T05:51:14.839Z,44.25
2017-10-08T05:53:46.061Z,40.63
2017-10-08T05:56:16.342Z,44.72
2017-10-08T05:58:46.953Z,45.55
2017-10-08T06:01:18.620Z,31.25
2017-10-08T06:03:49.224Z,35.33
2017-10-08T06:06:20.502Z,41.42
2017-10-08T06:08:50.909Z,42.08
2017-10-08T06:11:21.637Z,44.28
2017-10-08T06:13:52.025Z,31.20
2017-10-08T06:16:22.692Z,31.12
2017-10-08T06:18:53.223Z,32.63
2017-10-08T06:21:25.129Z,23.87
2017-10-08T06:23:56.081Z,29.35
2017-10-08T06:26:26.806Z,26.10
2017-10-08T06:28:57.348Z,26.08
2017-10-08T06:31:28.309Z,21.40
2017-10-08T06:34:00.512Z,22.83
2017-10-08T06:36:31.640Z,24.92
2017-10-08T06:39:03.224Z,21.83
2017-10-08T06:41:33.904Z,27.70
2017-10-08T06:44:05.291Z,30.75
2017-10-08T06:46:36.098Z,24.98
2017-10-08T06:49:06.580Z,31.00
2017-10-08T06:51:36.849Z,24.20
2017-10-08T06:54:08.326Z,22.65
2017-10-08T06:56:39.273Z,23.98
2017-10-08T06:59:09.866Z,25.02
2017-10-08T07:01:41.308Z,33.47
2017-10-08T07:04:11.984Z,35.00
2017-10-08T07:06:43.208Z,24.73
2017-10-08T07:09:14.827Z,21.98
2017-10-08T07:11:45.644Z,28.38
2017-10-08T07:14:16.671Z,24.75
2017-10-08T07:16:47.503Z,26.92
2017-10-08T07:19:18.348Z,19.25
2017-10-08T07:21:48.803Z,19.05
2017-10-08T07:24:19.476Z,20.80
2017-10-08T07:26:50.081Z,18.80
2017-10-08T07:29:21.409Z,22.05
2017-10-08T07:31:51.750Z,17.25
2017-10-08T07:34:22.523Z,26.15
2017-10-08T07:36:54.209Z,17.58
2017-10-08T07:39:24.909Z,14.85
2017-10-08T07:41:56.490Z,24.80
2017-10-08T07:44:27.737Z,19.60
2017-10-08T07:46:58.847Z,20.62
2017-10-08T07:49:29.675Z,18.05
2017-10-08T07:52:01.114Z,18.70
2017-10-08T07:54:32.800Z,18.15
2017-10-08T07:57:04.751Z,20.62
2017-10-08T07:59:35.905Z,16.92
2017-10-08T08:02:07.996Z,16.77
2017-10-08T08:04:39.635Z,20.58
2017-10-08T08:07:10.260Z,17.37
2017-10-08T08:09:41.036Z,17.37
2017-10-08T08:12:15.079Z,18.58
2017-10-08T08:14:45.338Z,16.95
2017-10-08T08:17:16.139Z,13.80
2017-10-08T08:19:47.073Z,12.55
2017-10-08T08:22:18.230Z,14.90
2017-10-08T08:24:49.663Z,21.87
2017-10-08T08:27:20.393Z,18.05
2017-10-08T08:29:52.057Z,12.85
2017-10-08T08:32:23.409Z,13.98
2017-10-08T08:34:54.279Z,19.50
2017-10-08T08:37:26.154Z,14.73
2017-10-08T08:39:57.041Z,13.40
2017-10-08T08:42:28.548Z,11.60
2017-10-08T08:45:00.231Z,16.37
2017-10-08T08:47:31.884Z,11.70
2017-10-08T08:50:02.884Z,15.60
2017-10-08T08:52:34.017Z,9.95
2017-10-08T08:55:05.198Z,10.07
2017-10-08T08:57:36.659Z,17.12
2017-10-08T09:00:08.712Z,13.75
2017-10-08T09:02:39.864Z,12.80
2017-10-08T09:05:11.368Z,12.63
2017-10-08T09:07:43.023Z,14.35
2017-10-08T09:10:14.408Z,16.30
2017-10-08T09:12:46.017Z,16.30
2017-10-08T09:15:17.512Z,16.52
2017-10-08T09:17:48.447Z,9.93
2017-10-08T09:20:20.741Z,6.40
2017-10-08T09:22:52.164Z,9.45
2017-10-08T09:25:24.109Z,17.80
2017-10-08T09:27:54.897Z,13.70
2017-10-08T09:30:26.622Z,12.68
2017-10-08T09:32:58.916Z,14.82
2017-10-08T09:35:30.248Z,9.52
2017-10-08T09:38:01.896Z,9.45
2017-10-08T09:40:33.340Z,10.10
2017-10-08T09:43:05.661Z,12.85
2017-10-08T09:45:38.740Z,8.32
2017-10-08T09:48:11.448Z,10.90
2017-10-08T09:50:43.935Z,9.68
2017-10-08T09:53:16.401Z,18.17
2017-10-08T09:55:50.279Z,11.52
2017-10-08T09:58:22.786Z,7.68
2017-10-08T10:00:54.976Z,11.73
2017-10-08T10:03:28.081Z,11.10
2017-10-08T10:06:00.867Z,9.85
2017-10-08T10:08:33.193Z,9.90
2017-10-08T10:11:05.187Z,14.55
2017-10-08T10:13:37.527Z,9.35
2017-10-08T10:16:09.784Z,14.38
2017-10-08T10:18:42.909Z,12.95
2017-10-08T10:21:16.116Z,8.68
2017-10-08T10:23:48.835Z,13.35
2017-10-08T10:26:21.088Z,12.18
2017-10-08T10:28:54.290Z,12.13
2017-10-08T10:31:27.190Z,6.95
2017-10-08T10:33:59.912Z,12.57
2017-10-08T10:36:33.157Z,8.07
2017-10-08T10:39:05.807Z,6.20
2017-10-08T10:41:38.464Z,6.78
2017-10-08T10:44:11.005Z,7.28
2017-10-08T10:46:43.735Z,12.00
2017-10-08T10:49:17.208Z,12.10
2017-10-08T10:51:49.370Z,8.98
2017-10-08T10:54:21.808Z,9.45
2017-10-08T10:56:55.048Z,4.03
2017-10-08T10:59:27.427Z,10.80
2017-10-08T11:02:00.153Z,6.43
2017-10-08T11:04:32.783Z,7.10
2017-10-08T11:07:05.549Z,10.88
2017-10-08T11:09:38.283Z,8.88
2017-10-08T11:12:11.594Z,5.50
2017-10-08T11:14:44.425Z,9.00
2017-10-08T11:17:17.641Z,12.02
2017-10-08T11:19:50.411Z,10.45
2017-10-08T11:22:23.479Z,7.12
2017-10-08T11:24:56.847Z,6.10
2017-10-08T11:27:29.369Z,12.95
2017-10-08T11:30:02.248Z,10.90
2017-10-08T11:32:34.836Z,10.45
2017-10-08T11:35:07.621Z,8.23
2017-10-08T11:37:40.967Z,13.60
2017-10-08T11:40:14.228Z,5.97
2017-10-08T11:42:47.352Z,11.60
2017-10-08T11:45:20.091Z,8.05
2017-10-08T11:47:52.199Z,7.22
2017-10-08T11:50:25.180Z,6.15
2017-10-08T11:52:57.719Z,5.25
2017-10-08T11:55:30.127Z,7.95
2017-10-08T11:58:02.694Z,11.85
2017-10-08T12:00:35.593Z,9.45
2017-10-08T12:03:08.769Z,14.63
2017-10-08T12:05:41.531Z,9.75
2017-10-08T12:08:14.375Z,15.27
2017-10-08T12:10:46.563Z,6.05
2017-10-08T12:13:19.531Z,8.75
2017-10-08T12:15:51.077Z,10.65
2017-10-08T12:18:23.284Z,8.07
2017-10-08T12:20:54.537Z,5.97
2017-10-08T12:23:25.570Z,7.85
2017-10-08T12:25:57.392Z,10.10
2017-10-08T12:28:29.399Z,2.33
2017-10-08T12:31:00.559Z,7.83
2017-10-08T12:33:31.986Z,1.63
2017-10-08T12:36:02.592Z,6.20
2017-10-08T12:38:33.937Z,3.05
2017-10-08T12:41:06.583Z,2.78
2017-10-08T12:43:37.676Z,2.12
2017-10-08T12:46:08.716Z,1.95
2017-10-08T12:48:39.549Z,4.57
2017-10-08T12:51:10.821Z,3.12
2017-10-08T12:53:42.231Z,2.90
2017-10-08T12:56:12.991Z,4.65
2017-10-08T12:58:44.601Z,4.85
2017-10-08T13:01:15.846Z,2.90
2017-10-08T13:03:47.633Z,4.62
2017-10-08T13:06:18.599Z,2.47
2017-10-08T13:08:49.968Z,5.12
2017-10-08T13:11:21.355Z,2.33
2017-10-08T13:13:52.216Z,9.77
2017-10-08T13:16:23.672Z,2.60
2017-10-08T13:18:54.517Z,7.53
2017-10-08T13:21:25.982Z,2.30
2017-10-08T13:23:57.382Z,2.83
2017-10-08T13:26:29.115Z,16.23
2017-10-08T13:29:00.145Z,6.70
2017-10-08T13:31:32.008Z,4.05
2017-10-08T13:34:03.508Z,2.40
2017-10-08T13:36:34.835Z,4.20
2017-10-08T13:39:05.926Z,5.43
2017-10-08T13:41:37.135Z,4.35
2017-10-08T13:44:09.029Z,8.60
2017-10-08T13:46:40.556Z,3.87
2017-10-08T13:49:11.593Z,3.78
2017-10-08T13:51:43.017Z,6.82
2017-10-08T13:54:14.834Z,7.30
2017-10-08T13:56:46.305Z,5.65
2017-10-08T13:59:17.830Z,3.95
2017-10-08T14:01:50.347Z,3.35
2017-10-08T14:04:21.800Z,4.62
2017-10-08T14:06:53.853Z,4.40
2017-10-08T14:09:25.529Z,4.47
2017-10-08T14:11:56.509Z,5.37
2017-10-08T14:14:27.258Z,4.45
2017-10-08T14:16:58.205Z,2.55
2017-10-08T14:19:30.099Z,4.70
2017-10-08T14:22:01.202Z,4.78
2017-10-08T14:24:32.506Z,2.08
2017-10-08T14:27:03.925Z,5.10
2017-10-08T14:29:35.719Z,5.97
2017-10-08T14:32:06.630Z,6.47
2017-10-08T14:34:38.969Z,4.53
2017-10-08T14:37:10.362Z,5.40
2017-10-08T14:39:41.859Z,7.95
2017-10-08T14:42:13.936Z,3.95
2017-10-08T14:44:45.455Z,6.87
2017-10-08T14:47:16.407Z,6.43
2017-10-08T14:49:48.254Z,4.75
2017-10-08T14:52:20.794Z,4.25
2017-10-08T14:54:51.867Z,2.80
2017-10-08T14:57:23.644Z,5.45
2017-10-08T14:59:54.954Z,3.78
2017-10-08T15:02:26.586Z,4.37
2017-10-08T15:04:57.959Z,2.70
2017-10-08T15:07:29.042Z,6.80
2017-10-08T15:09:59.929Z,4.35
2017-10-08T15:12:31.145Z,11.48
2017-10-08T15:15:02.336Z,4.10
2017-10-08T15:17:33.801Z,7.85
2017-10-08T15:20:05.698Z,7.68
2017-10-08T15:22:38.269Z,10.35
2017-10-08T15:25:10.299Z,7.85
2017-10-08T15:27:41.625Z,10.10
2017-10-08T15:30:12.673Z,5.47
2017-10-08T15:32:43.397Z,7.53
2017-10-08T15:35:14.241Z,4.53
2017-10-08T15:37:45.509Z,3.47
2017-10-08T15:40:16.625Z,3.30
2017-10-08T15:42:48.040Z,14.60
2017-10-08T15:45:19.328Z,9.40
2017-10-08T15:47:49.841Z,6.95
2017-10-08T15:50:21.647Z,9.10
2017-10-08T15:52:52.434Z,7.93
2017-10-08T15:55:24.584Z,4.20
2017-10-08T15:57:55.554Z,5.72
2017-10-08T16:00:28.568Z,8.05
2017-10-08T16:03:00.419Z,4.05
2017-10-08T16:05:31.961Z,4.87
2017-10-08T16:08:03.217Z,5.12
2017-10-08T16:10:33.974Z,9.68
2017-10-08T16:13:04.469Z,14.55
2017-10-08T16:15:35.342Z,4.45
2017-10-08T16:18:06.654Z,4.00
2017-10-08T16:20:38.728Z,5.93
2017-10-08T16:23:09.015Z,10.38
2017-10-08T16:25:39.376Z,7.25
2017-10-08T16:28:10.795Z,5.18
2017-10-08T16:30:42.280Z,8.50
2017-10-08T16:33:14.110Z,4.75
2017-10-08T16:35:45.580Z,7.97
2017-10-08T16:38:17.547Z,8.35
2017-10-08T16:40:48.082Z,15.32
2017-10-08T16:43:20.160Z,8.00
2017-10-08T16:45:51.963Z,10.18
2017-10-08T16:48:22.998Z,9.85
2017-10-08T16:50:54.078Z,10.00
2017-10-08T16:53:24.579Z,11.63
2017-10-08T16:55:55.940Z,5.45
2017-10-08T16:58:27.033Z,9.80
2017-10-08T17:00:58.061Z,8.82
2017-10-08T17:03:28.953Z,6.47
2017-10-08T17:05:59.770Z,4.95
2017-10-08T17:08:31.016Z,6.15
2017-10-08T17:11:01.896Z,8.82
2017-10-08T17:13:32.657Z,9.85
2017-10-08T17:16:04.403Z,6.00
2017-10-08T17:18:35.249Z,6.57
2017-10-08T17:21:06.377Z,7.93
2017-10-08T17:23:36.908Z,5.80
2017-10-08T17:26:08.180Z,5.40
2017-10-08T17:28:39.158Z,7.50
2017-10-08T17:31:10.407Z,10.00
2017-10-08T17:33:40.726Z,5.25
2017-10-08T17:36:11.067Z,10.02
2017-10-08T17:38:41.726Z,11.85
2017-10-08T17:41:12.175Z,10.30
2017-10-08T17:43:44.527Z,12.10
2017-10-08T17:46:15.261Z,14.07
2017-10-08T17:48:46.291Z,13.75
2017-10-08T17:51:17.796Z,11.02
2017-10-08T17:53:48.959Z,10.90
2017-10-08T17:56:20.289Z,7.87
2017-10-08T17:58:51.095Z,11.07
2017-10-08T18:01:21.929Z,13.38
2017-10-08T18:03:53.268Z,8.38
2017-10-08T18:06:23.516Z,8.75
2017-10-08T18:08:54.191Z,10.20
2017-10-08T18:11:26.080Z,9.93
2017-10-08T18:13:58.375Z,13.32
2017-10-08T18:16:30.176Z,20.10
2017-10-08T18:19:01.740Z,9.13
2017-10-08T18:21:32.966Z,10.52
2017-10-08T18:24:03.990Z,19.02
2017-10-08T18:26:34.940Z,23.00
2017-10-08T18:29:06.574Z,11.27
2017-10-08T18:31:37.829Z,9.43
2017-10-08T18:34:09.046Z,10.32
2017-10-08T18:36:40.806Z,14.63
2017-10-08T18:39:12.258Z,8.52
2017-10-08T18:41:43.925Z,8.20
2017-10-08T18:44:16.083Z,10.25
2017-10-08T18:46:46.578Z,14.38
2017-10-08T18:49:19.536Z,11.93
2017-10-08T18:51:50.406Z,10.88
2017-10-08T18:54:22.656Z,16.00
2017-10-08T18:56:53.418Z,19.50
2017-10-08T18:59:24.391Z,14.57
2017-10-08T19:01:55.549Z,13.00
2017-10-08T19:04:26.312Z,14.45
2017-10-08T19:06:56.883Z,15.32
2017-10-08T19:09:28.135Z,12.70
2017-10-08T19:11:59.392Z,20.85
2017-10-08T19:14:30.329Z,15.38
2017-10-08T19:17:01.750Z,15.30
2017-10-08T19:19:32.789Z,18.00
2017-10-08T19:22:03.208Z,23.92
2017-10-08T19:24:34.087Z,11.38
2017-10-08T19:27:05.679Z,19.65
2017-10-08T19:29:37.005Z,15.38
2017-10-08T19:32:08.760Z,19.62
2017-10-08T19:34:39.691Z,17.33
2017-10-08T19:37:10.967Z,13.65
2017-10-08T19:39:42.343Z,14.20
2017-10-08T19:42:13.100Z,13.60
2017-10-08T19:44:45.169Z,14.65
2017-10-08T19:47:15.849Z,18.05
2017-10-08T19:49:46.948Z,12.60
2017-10-08T19:52:18.027Z,17.87
2017-10-08T19:54:49.427Z,24.40
2017-10-08T19:57:22.149Z,19.92
2017-10-08T19:59:53.552Z,14.70
2017-10-08T20:02:25.118Z,15.63
2017-10-08T20:04:56.916Z,19.27
2017-10-08T20:07:27.708Z,18.30
2017-10-08T20:09:59.308Z,14.45
2017-10-08T20:12:30.550Z,18.25
2017-10-08T20:15:01.881Z,24.58
2017-10-08T20:17:32.731Z,20.27
2017-10-08T20:20:03.826Z,20.35
2017-10-08T20:22:35.155Z,16.60
2017-10-08T20:25:06.313Z,16.27
2017-10-08T20:27:37.706Z,19.30
2017-10-08T20:30:09.082Z,17.90
2017-10-08T20:32:40.486Z,21.15
2017-10-08T20:35:11.859Z,16.52
2017-10-08T20:37:43.527Z,12.13
2017-10-08T20:40:14.692Z,17.05
2017-10-08T20:42:46.637Z,13.30
2017-10-08T20:45:17.230Z,14.30
2017-10-08T20:47:48.309Z,19.08
2017-10-08T20:50:18.967Z,11.85
2017-10-08T20:52:49.753Z,12.43
2017-10-08T20:55:20.738Z,22.52
2017-10-08T20:57:51.894Z,12.13
2017-10-08T21:00:22.889Z,9.77
2017-10-08T21:02:53.674Z,20.83
2017-10-08T21:05:24.996Z,12.07
2017-10-08T21:07:55.477Z,15.70
2017-10-08T21:10:26.248Z,13.52
2017-10-08T21:12:57.639Z,13.55
2017-10-08T21:15:28.292Z,17.33
2017-10-08T21:17:59.597Z,16.45
2017-10-08T21:20:31.940Z,14.75
2017-10-08T21:23:03.215Z,14.73
2017-10-08T21:25:34.459Z,15.32
2017-10-08T21:28:05.259Z,14.80
2017-10-08T21:30:36.398Z,21.27
2017-10-08T21:33:07.530Z,16.87
2017-10-08T21:35:38.593Z,18.50
2017-10-08T21:38:09.608Z,13.40
2017-10-08T21:40:41.082Z,17.50
2017-10-08T21:43:11.922Z,16.25
2017-10-08T21:45:44.327Z,15.02
2017-10-08T21:48:15.859Z,14.30
2017-10-08T21:50:47.967Z,15.10
2017-10-08T21:53:19.496Z,16.35
2017-10-08T21:55:50.440Z,16.35
2017-10-08T21:58:21.794Z,23.23
2017-10-08T22:00:53.250Z,14.18
2017-10-08T22:03:24.370Z,13.30
2017-10-08T22:05:55.787Z,16.48
2017-10-08T22:08:27.444Z,11.55
2017-10-08T22:10:58.746Z,14.52
2017-10-08T22:13:29.765Z,16.00
2017-10-08T22:16:00.959Z,12.80
2017-10-08T22:18:31.965Z,13.82
2017-10-08T22:21:03.834Z,10.68
2017-10-08T22:23:35.132Z,17.77
2017-10-08T22:26:05.666Z,14.38
2017-10-08T22:28:38.491Z,14.23
2017-10-08T22:31:09.663Z,11.60
2017-10-08T22:33:40.826Z,12.00
2017-10-08T22:36:12.017Z,12.20
2017-10-08T22:38:43.002Z,10.70
2017-10-08T22:41:14.391Z,9.05
2017-10-08T22:43:45.482Z,18.23
2017-10-08T22:46:16.485Z,13.95
2017-10-08T22:48:47.846Z,15.25
2017-10-08T22:51:18.550Z,10.90
2017-10-08T22:53:50.367Z,12.80
2017-10-08T22:56:21.541Z,13.05
2017-10-08T22:58:52.452Z,13.57
2017-10-08T23:01:23.086Z,11.95
2017-10-08T23:03:54.204Z,16.62
2017-10-08T23:06:25.942Z,22.87
2017-10-08T23:08:57.062Z,14.95
2017-10-08T23:11:28.241Z,9.65
2017-10-08T23:13:58.665Z,10.63
2017-10-08T23:16:29.130Z,11.63
2017-10-08T23:18:59.772Z,10.15
2017-10-08T23:21:30.542Z,15.00
2017-10-08T23:24:01.023Z,13.73
2017-10-08T23:26:31.909Z,12.45
2017-10-08T23:29:02.781Z,17.48
2017-10-08T23:31:33.306Z,12.07
2017-10-08T23:34:04.906Z,15.52
2017-10-08T23:36:36.772Z,10.85
2017-10-08T23:39:08.396Z,12.63
2017-10-08T23:41:44.992Z,12.37
2017-10-08T23:44:15.830Z,9.55
2017-10-08T23:46:47.487Z,14.40
2017-10-08T23:49:18.201Z,11.55
2017-10-08T23:51:48.778Z,15.75
2017-10-08T23:54:19.690Z,11.60
2017-10-08T23:56:50.867Z,16.15
2017-10-08T23:59:22.887Z,18.17
